VCバード国際空港の過去48時間の天気

VCバード国際空港 (Vc Bird International Airport Antigua)

現在時刻: 7/1 07:52 AST (7/1 11:52 UTC) 以下の時間は現地時間です。

過去48時間のMETAR気象情報
時間 風向 風速(m/s) 視程 気温(℃) 湿度(%) 気圧(hPa) 天気現象
1 07:00 6 10km以上 28 74 1015 周辺でしゅう雨
1 06:00 5 10km以上 27 74 1015
1 05:00 東北東 6 10km以上 27 74 1014
1 04:00 5 10km以上 27 79 1014
1 03:00 6 10km以上 27 74 1015
1 02:00 6 10km以上 27 74 1015
1 01:00 7 10km以上 27 74 1015
1 00:00 6 10km以上 27 79 1016
30 23:00 6 10km以上 27 79 1017
30 22:00 6 10km以上 27 79 1017
30 21:00 6 10km以上 27 79 1017
30 20:00 6 10km以上 27 79 1016
30 18:00 6 10km以上 28 74 1015
30 17:00 7 10km以上 29 70 1015
30 16:00 7 10km以上 29 70 1015
30 15:00 7 10km以上 30 66 1015
30 14:00 7 10km以上 31 62 1016
30 13:00 7 10km以上 31 62 1016
30 12:00 7 10km以上 31 62 1017
30 11:00 6 10km以上 30 66 1017
30 10:00 7 10km以上 30 70 1017
30 09:00 7 10km以上 29 70 1017
30 08:00 7 10km以上 29 70 1017
30 07:00 6 10km以上 27 79 1017
30 06:00 5 10km以上 27 84 1017
30 05:00 5 10km以上 27 79 1017
30 04:00 5 10km以上 27 84 1017 周辺でしゅう雨
30 03:00 6 10km以上 27 79 1017
30 02:00 6 10km以上 27 79 1017
30 00:00 6 10km以上 27 79 1019
29 23:00 7 10km以上 27 79 1019
29 22:00 6 10km以上 28 74 1019
29 21:00 6 10km以上 28 74 1018
29 20:00 7 10km以上 28 74 1017
29 19:00 7 10km以上 28 74 1017
29 18:00 7 10km以上 28 74 1016
29 17:00 7 10km以上 29 74 1016
29 16:00 7 10km以上 29 74 1016
29 15:00 8 10km以上 30 70 1016
29 14:00 8 10km以上 30 70 1017 周辺でしゅう雨
29 13:00 7 10km以上 30 70 1018 周辺でしゅう雨
29 12:00 7 10km以上 30 70 1018
29 11:00 8 10km以上 30 70 1018
29 10:00 7 10km以上 29 74 1018
29 09:00 7 10km以上 28 84 1018
29 08:00 7 10km以上 29 74 1018
TAPA 011100Z 08011G21KT 040V150 9999 VCSH SCT018 28/23 Q1015 NOSIG
TAPA 011000Z 08010KT 040V120 9999 SCT018 27/22 Q1015 NOSIG
TAPA 010900Z 07011KT 040V110 9999 SCT018 27/22 Q1014 NOSIG
TAPA 010800Z 08010KT 030V120 9999 SCT018 27/23 Q1014 NOSIG
TAPA 010700Z 09012KT 040V120 9999 SCT018 27/22 Q1015 NOSIG
TAPA 010600Z 09011KT 040V130 9999 BKN018 27/22 Q1015 NOSIG
TAPA 010500Z 08013KT 050V120 9999 SCT018 27/22 Q1015 NOSIG
TAPA 010400Z 09012KT 050V140 9999 SCT019 27/23 Q1016 NOSIG
TAPA 010300Z 08012KT 050V120 9999 SCT019 27/23 Q1017 NOSIG
TAPA 010200Z 08011KT 050V130 9999 FEW022 27/23 Q1017 NOSIG
TAPA 010100Z 08011KT 050V120 9999 SCT020 27/23 Q1017 NOSIG
TAPA 010000Z 08011KT 040V110 9999 SCT020 27/23 Q1016 NOSIG
TAPA 302200Z 08012KT 040V120 9999 SCT021 28/23 Q1015 NOSIG
TAPA 302100Z 08013KT 050V130 9999 BKN021 29/23 Q1015 NOSIG
TAPA 302000Z 08013KT 040V120 9999 SCT022 29/23 Q1015 NOSIG
TAPA 301900Z 08013KT 040V140 9999 BKN022 30/23 Q1015 NOSIG
TAPA 301800Z 09014KT 050V120 9999 FEW022 31/23 Q1016 NOSIG
TAPA 301700Z 08013G23KT 9999 FEW022 31/23 Q1016 NOSIG
TAPA 301600Z 08013G24KT 050V140 9999 SCT022 31/23 Q1017 NOSIG
TAPA 301500Z 09012KT 040V150 9999 SCT022 30/23 Q1017 NOSIG
TAPA 301400Z 08014KT 050V130 9999 SCT020 30/24 Q1017 NOSIG
TAPA 301300Z 08014KT 050V120 9999 SCT020 29/23 Q1017 NOSIG
TAPA 301200Z 08014KT 040V120 9999 BKN020 29/23 Q1017 NOSIG
TAPA 301100Z 09011KT 050V120 9999 FEW018 27/23 Q1017 NOSIG
TAPA 301000Z 09009KT 060V130 9999 SCT018 27/24 Q1017 NOSIG
TAPA 300900Z 08010KT 040V130 9999 FEW020 27/23 Q1017 NOSIG
TAPA 300800Z 09010KT 060V140 9999 VCSH SCT018 27/24 Q1017 TEMPO FM0810 TL0915 4800 SHRA
TAPA 300700Z 09011KT 050V130 9999 SCT018 27/23 Q1017 TEMPO FM0715 TL0810 3000 +SHRA BKN014
TAPA 300600Z 09011KT 050V120 9999 SCT020 27/23 Q1017 NOSIG
TAPA 300400Z 09012KT 050V130 9999 SCT018 27/23 Q1019 NOSIG
TAPA 300300Z 09014KT 040V130 9999 BKN018 27/23 Q1019 NOSIG
TAPA 300200Z 09012KT 040V130 9999 SCT018 28/23 Q1019 NOSIG
TAPA 300100Z 09012KT 050V140 9999 BKN018 28/23 Q1018 NOSIG
TAPA 300000Z 09013G25KT 060V140 9999 BKN018 28/23 Q1017 NOSIG
TAPA 292300Z 10013G23KT 040V150 9999 BKN018 28/23 Q1017 NOSIG
TAPA 292200Z 09013G24KT 060V130 9999 SCT018 28/23 Q1016 NOSIG
TAPA 292100Z 09014G24KT 050V130 9999 SCT019 29/24 Q1016 NOSIG
TAPA 292000Z 08014KT 050V140 9999 BKN017 29/24 Q1016 NOSIG
TAPA 291900Z COR 09015KT 050V130 9999 SCT018 30/24 Q1016 NOSIG
TAPA 291800Z 09015KT 050V130 9999 VCSH SCT017TCU 30/24 Q1017 NOSIG
TAPA 291700Z 09013G24KT 050V140 9999 VCSH BKN018 30/24 Q1018 NOSIG
TAPA 291600Z 10014KT 060V140 9999 BKN020 30/24 Q1018 NOSIG
TAPA 291500Z 09015KT 050V130 9999 BKN018 30/24 Q1018 NOSIG
TAPA 291400Z 09014KT 060V140 9999 SCT018 29/24 Q1018 NOSIG
TAPA 291300Z 09014G24KT 050V140 9999 BKN016 28/25 Q1018 NOSIG
TAPA 291200Z 09014G24KT 040V120 9999 BKN018 29/24 Q1018 NOSIG